Accueil
METAR-TAF:

METAR-TAF

Aéroports :

Aéroport international de N'Djaména

Ndjamena, Tchad

latitude: 12-08N, longitude: 015-02E, altitude: 295 m

Observation

Le bulletin a été fait il y a 1 heure et 4 minutes, à 20:00 UTC
Vent 2 kt de direction variable
Température 29°C
Humidité 58%
Pression 1008 hPa
Visibilité: 7000 m

METAR: FTTJ 212000Z VRB02KT 7000 NSC 29/20 Q1008 NOSIG

Heure: 22:04 (21:04 UTC)

Prévision

Le bulletin a été fait il y a 4 heures et 4 minutes, à 17:00 UTC
Prévision valable du 21 à 18 UTC au 22 à 24 UTC
Vent 3 kt de direction variable
Visibilité: 6000 m
Temporairement
du 22 à 02 UTC au 22 à 07 UTC
Visibilité: 4000 m
brume sèche
Temporairement
du 22 à 08 UTC au 22 à 14 UTC
Vent 10 kt de est
Visibilité 10 km ou plus
Quelques nuages à une hauteur de 4000 ft

TAF: FTTJ 211700Z 2118/2224 VRB03KT 6000 NSC TEMPO 2202/2207 4000 HZ TEMPO 2208/2214 10010KT 9999 FEW040

Observations et prévisions météorologiques de plus de 4000 aéroports (messages METAR et TAF).

Les stations disponibles sont représentées par des disques jaunes et rouges sur la carte.

Passer la souris dessus pour voir le nom de la station.

Cliquer dessus pour voir les observations et prévisions météorologiques.

Pour changer de carte: cliquez sur les boutons verts avec une croix noire pour zoomer, sur le bouton vert avec un tiret pour effectuer un zoom arrière, ou sur les flèches vertes pour les cartes adjacentes.


METAR-TAF: